Time;durP1;ratioP1;P1;durP2;ratioP2;P2;SDS_P1;SDS_P2;PMS_P1;PMS_P2;Temp;Humidity;BMP_temperature;BMP_pressure;BME280_temperature;BME280_humidity;BME280_pressure;Samples;Min_cycle;Max_cycle;Signal;HPM_P1;HPM_P2
2022/10/10 00:02:08;;;;;;;2.70;1.90;;;12.40;99.90;;;;;;5030137;28;20214;-36
2022/10/10 00:04:34;;;;;;;1.87;1.47;;;12.40;99.90;;;;;;5029921;28;20201;-36
2022/10/10 00:06:59;;;;;;;1.87;1.77;;;12.40;99.90;;;;;;5030358;28;20495;-36
2022/10/10 00:09:25;;;;;;;2.50;1.77;;;12.40;99.90;;;;;;5029780;28;20206;-35
2022/10/10 00:11:51;;;;;;;2.10;1.90;;;12.40;99.90;;;;;;5029857;28;20558;-35
2022/10/10 00:14:17;;;;;;;2.63;2.20;;;12.40;99.90;;;;;;5029535;28;20288;-36
2022/10/10 00:16:43;;;;;;;1.67;1.50;;;12.40;99.90;;;;;;5029953;28;20833;-36
2022/10/10 00:19:09;;;;;;;2.90;1.63;;;12.40;99.90;;;;;;5030168;28;20240;-36
2022/10/10 00:21:34;;;;;;;2.20;1.60;;;12.30;99.90;;;;;;5031909;28;20178;-37
2022/10/10 00:24:00;;;;;;;2.00;1.80;;;12.30;99.90;;;;;;5029578;28;20209;-36
2022/10/10 00:26:26;;;;;;;2.33;2.07;;;12.40;99.90;;;;;;5030305;28;20244;-36
2022/10/10 00:28:51;;;;;;;2.50;2.00;;;12.20;99.90;;;;;;5030159;28;20261;-36
2022/10/10 00:31:17;;;;;;;2.30;2.10;;;12.10;99.90;;;;;;5029977;28;20194;-37
2022/10/10 00:33:43;;;;;;;2.73;1.83;;;11.90;99.90;;;;;;5029579;28;20297;-36
2022/10/10 00:36:09;;;;;;;2.40;1.93;;;11.70;99.90;;;;;;5030126;28;20565;-36
2022/10/10 00:38:35;;;;;;;2.60;1.83;;;11.70;99.90;;;;;;5029981;28;20511;-37
2022/10/10 00:41:01;;;;;;;2.03;1.50;;;11.40;99.90;;;;;;5029920;28;20469;-37
2022/10/10 00:43:28;;;;;;;2.10;1.77;;;11.30;99.90;;;;;;5028066;28;20579;-36
2022/10/10 00:45:54;;;;;;;4.10;2.00;;;11.30;99.90;;;;;;5029762;28;20443;-36
2022/10/10 00:48:31;;;;;;;2.43;2.00;;;11.30;99.90;;;;;;5029970;28;20896;-36
2022/10/10 00:51:06;;;;;;;3.67;1.90;;;11.20;99.90;;;;;;5028613;28;20522;-36
2022/10/10 00:53:55;;;;;;;2.17;2.00;;;11.30;99.90;;;;;;5029396;28;20416;-36
2022/10/10 00:56:29;;;;;;;2.83;2.50;;;11.40;99.90;;;;;;5020608;28;20990;-36
2022/10/10 00:58:59;;;;;;;3.10;2.30;;;11.50;99.90;;;;;;5029755;28;20420;-36
2022/10/10 01:01:25;;;;;;;2.17;1.80;;;11.60;99.90;;;;;;5029761;28;20538;-36
2022/10/10 01:03:56;;;;;;;2.13;1.93;;;11.70;99.90;;;;;;5029248;28;20812;-36
2022/10/10 01:06:22;;;;;;;3.30;2.23;;;11.90;99.90;;;;;;5029719;28;20433;-36
2022/10/10 01:08:47;;;;;;;3.03;1.63;;;12.00;99.90;;;;;;5029588;28;20429;-36
2022/10/10 01:11:47;;;;;;;3.27;2.17;;;12.10;99.90;;;;;;5028171;28;20213;-36
2022/10/10 01:14:34;;;;;;;3.60;1.97;;;12.20;99.90;;;;;;5018429;28;20198;-36
2022/10/10 01:17:26;;;;;;;4.10;2.17;;;12.20;99.90;;;;;;5029483;28;20792;-36
2022/10/10 01:20:37;;;;;;;2.23;1.90;;;12.30;99.90;;;;;;5029919;28;20472;-36
2022/10/10 01:23:24;;;;;;;2.03;1.83;;;12.30;99.90;;;;;;5028746;28;20432;-36
2022/10/10 01:26:08;;;;;;;2.00;1.80;;;12.30;99.90;;;;;;5029599;28;20409;-36
2022/10/10 01:28:44;;;;;;;2.83;2.00;;;12.20;99.90;;;;;;5029587;28;20471;-36
2022/10/10 01:31:14;;;;;;;2.90;2.00;;;12.20;99.90;;;;;;5029490;28;20463;-36
2022/10/10 01:33:58;;;;;;;3.53;1.90;;;12.20;99.90;;;;;;5028866;28;20486;-36
2022/10/10 01:36:49;;;;;;;3.63;2.00;;;12.10;99.90;;;;;;5029344;28;20425;-36
2022/10/10 01:39:28;;;;;;;3.40;1.90;;;12.20;99.90;;;;;;5029401;28;20433;-36
2022/10/10 01:42:09;;;;;;;2.00;1.83;;;12.10;99.90;;;;;;5029426;28;20420;-36
2022/10/10 01:44:34;;;;;;;4.03;2.10;;;12.10;99.90;;;;;;5028784;28;20413;-36
2022/10/10 01:47:00;;;;;;;2.80;1.90;;;12.20;99.90;;;;;;5029536;28;20425;-37
2022/10/10 01:49:31;;;;;;;2.50;1.70;;;12.10;99.90;;;;;;5029415;28;20186;-36
2022/10/10 01:52:04;;;;;;;3.57;2.20;;;12.20;99.90;;;;;;5029540;28;20191;-36
2022/10/10 01:54:30;;;;;;;2.03;1.83;;;12.20;99.90;;;;;;5029609;28;20475;-36
2022/10/10 01:57:15;;;;;;;2.30;2.10;;;12.20;99.90;;;;;;5032628;28;21038;-36
2022/10/10 02:00:07;;;;;;;3.30;2.00;;;12.10;99.90;;;;;;5032565;28;20291;-36
2022/10/10 02:03:08;;;;;;;3.20;2.00;;;12.10;99.90;;;;;;5032569;28;20428;-36
2022/10/10 02:05:51;;;;;;;3.60;2.00;;;12.10;99.90;;;;;;5032662;28;20807;-36
2022/10/10 02:08:31;;;;;;;2.13;1.93;;;12.00;99.90;;;;;;5032723;28;20424;-36
2022/10/10 02:11:05;;;;;;;2.50;2.10;;;12.00;99.90;;;;;;5032803;28;20514;-36
2022/10/10 02:13:42;;;;;;;2.30;2.00;;;12.00;99.90;;;;;;5031810;28;20854;-36
2022/10/10 02:16:13;;;;;;;4.60;2.13;;;12.00;99.90;;;;;;5032719;28;20432;-36
2022/10/10 02:18:44;;;;;;;3.07;2.43;;;12.00;99.90;;;;;;5032573;28;20427;-36
2022/10/10 02:21:11;;;;;;;3.07;2.17;;;12.00;99.90;;;;;;5033822;28;20467;-36
2022/10/10 02:23:41;;;;;;;2.07;1.87;;;12.00;99.90;;;;;;5031646;28;20893;-36
2022/10/10 02:26:10;;;;;;;2.27;2.07;;;12.00;99.90;;;;;;5032477;28;20429;-36
2022/10/10 02:28:47;;;;;;;3.23;2.07;;;12.00;99.90;;;;;;5032387;28;20421;-36
2022/10/10 02:31:20;;;;;;;2.47;2.10;;;12.00;99.90;;;;;;5032475;28;20428;-36
2022/10/10 02:33:58;;;;;;;3.63;2.03;;;12.00;99.90;;;;;;5031655;28;20431;-36
2022/10/10 02:36:25;;;;;;;3.90;1.93;;;12.00;99.90;;;;;;5032019;28;20919;-36
2022/10/10 02:38:52;;;;;;;2.80;2.00;;;12.00;99.90;;;;;;5032224;28;20458;-36
2022/10/10 02:41:19;;;;;;;2.67;2.17;;;12.10;99.90;;;;;;5032103;28;20471;-36
2022/10/10 02:43:46;;;;;;;6.10;2.70;;;12.00;99.90;;;;;;5031421;28;20429;-36
2022/10/10 02:46:13;;;;;;;3.57;2.33;;;12.00;99.90;;;;;;5031977;28;20432;-36
2022/10/10 02:48:39;;;;;;;4.67;2.60;;;12.10;99.90;;;;;;5031850;28;20425;-36
2022/10/10 02:51:06;;;;;;;2.70;2.10;;;12.10;99.90;;;;;;5032111;28;20899;-36
2022/10/10 02:53:33;;;;;;;4.13;2.30;;;12.10;99.90;;;;;;5031230;28;20523;-36
2022/10/10 02:55:59;;;;;;;3.30;2.30;;;12.10;99.90;;;;;;5030385;28;20428;-36
2022/10/10 02:58:24;;;;;;;2.50;2.30;;;12.10;99.90;;;;;;5031809;28;20437;-36
2022/10/10 03:00:50;;;;;;;2.47;2.03;;;12.00;99.90;;;;;;5031652;28;20218;-36
2022/10/10 03:03:15;;;;;;;4.00;2.60;;;12.00;99.90;;;;;;5030943;28;20201;-36
2022/10/10 03:05:41;;;;;;;2.83;2.40;;;12.00;99.90;;;;;;5030505;28;20362;-36
2022/10/10 03:08:07;;;;;;;2.03;1.83;;;12.00;99.90;;;;;;5031625;28;20194;-36
2022/10/10 03:10:32;;;;;;;4.17;2.70;;;11.90;99.90;;;;;;5031599;28;20194;-36
2022/10/10 03:12:58;;;;;;;3.07;2.73;;;12.00;99.90;;;;;;5029868;28;20198;-36
2022/10/10 03:15:24;;;;;;;3.67;2.47;;;11.90;99.90;;;;;;5031326;28;20197;-37
2022/10/10 03:17:49;;;;;;;5.50;2.70;;;11.90;99.90;;;;;;5031476;28;20309;-36
2022/10/10 03:20:15;;;;;;;2.80;2.60;;;11.90;99.90;;;;;;5031862;28;20221;-36
2022/10/10 03:22:41;;;;;;;3.77;2.67;;;12.00;99.90;;;;;;5030883;28;20252;-36
2022/10/10 03:25:06;;;;;;;2.77;2.57;;;11.90;99.90;;;;;;5031343;28;20278;-36
2022/10/10 03:27:32;;;;;;;3.33;2.27;;;11.90;99.90;;;;;;5031421;28;20189;-36
2022/10/10 03:29:58;;;;;;;3.60;2.20;;;11.90;99.90;;;;;;5031260;28;20202;-36
2022/10/10 03:32:24;;;;;;;4.00;2.30;;;11.90;99.90;;;;;;5030862;28;20194;-36
2022/10/10 03:34:49;;;;;;;2.73;2.53;;;11.90;99.90;;;;;;5030661;28;20205;-36
2022/10/10 03:37:15;;;;;;;2.83;2.53;;;11.80;99.90;;;;;;5031208;28;20198;-36
2022/10/10 03:39:40;;;;;;;2.70;2.30;;;11.80;99.90;;;;;;5029561;28;20250;-36
2022/10/10 03:42:06;;;;;;;5.07;3.40;;;11.90;99.90;;;;;;5031072;28;20218;-36
2022/10/10 03:44:32;;;;;;;3.60;3.00;;;11.90;99.90;;;;;;5030224;28;20402;-36
2022/10/10 03:46:57;;;;;;;4.33;2.70;;;11.80;99.90;;;;;;5030899;28;20191;-36
2022/10/10 03:49:23;;;;;;;3.47;3.07;;;11.80;99.90;;;;;;5030750;28;20190;-36
2022/10/10 03:51:48;;;;;;;3.43;2.50;;;11.80;99.90;;;;;;5030807;28;20186;-36
2022/10/10 03:54:14;;;;;;;4.43;2.57;;;11.80;99.90;;;;;;5028703;28;20205;-36
2022/10/10 03:56:40;;;;;;;3.20;2.90;;;11.80;99.90;;;;;;5030629;28;20190;-36
2022/10/10 03:59:05;;;;;;;5.93;2.33;;;11.80;99.90;;;;;;5030730;28;20193;-36
2022/10/10 04:01:32;;;;;;;4.63;2.77;;;11.80;99.90;;;;;;5029797;28;20394;-36
2022/10/10 04:03:58;;;;;;;3.33;2.60;;;11.70;99.90;;;;;;5028300;28;20248;-36
2022/10/10 04:06:24;;;;;;;3.43;2.60;;;11.80;99.90;;;;;;5030485;28;20421;-36
2022/10/10 04:08:49;;;;;;;3.60;2.43;;;11.80;99.90;;;;;;5030496;28;20637;-36
2022/10/10 04:11:15;;;;;;;3.60;2.60;;;11.70;99.90;;;;;;5030463;28;20205;-37
2022/10/10 04:13:40;;;;;;;3.10;2.80;;;11.70;99.90;;;;;;5030037;28;20202;-36
2022/10/10 04:16:06;;;;;;;3.80;2.80;;;11.80;99.90;;;;;;5029957;28;20192;-36
2022/10/10 04:18:32;;;;;;;6.33;2.77;;;11.80;99.90;;;;;;5030168;28;20669;-37
2022/10/10 04:21:02;;;;;;;3.30;2.50;;;11.80;99.90;;;;;;5030705;28;20734;-37
2022/10/10 04:23:27;;;;;;;3.43;2.53;;;11.80;99.90;;;;;;5029799;28;20190;-37
2022/10/10 04:25:53;;;;;;;2.80;2.60;;;11.80;99.90;;;;;;5030233;28;20463;-36
2022/10/10 04:28:19;;;;;;;3.50;2.83;;;11.70;99.90;;;;;;5030167;28;20218;-36
2022/10/10 04:30:45;;;;;;;4.33;2.73;;;11.70;99.90;;;;;;5030088;28;20340;-37
2022/10/10 04:33:11;;;;;;;4.60;3.03;;;11.70;99.90;;;;;;5029338;28;20676;-36
2022/10/10 04:35:37;;;;;;;7.43;3.93;;;11.70;99.90;;;;;;5028835;28;20476;-36
2022/10/10 04:38:04;;;;;;;3.33;2.50;;;11.60;99.90;;;;;;5030004;28;20191;-36
2022/10/10 04:40:29;;;;;;;4.73;2.83;;;11.70;99.90;;;;;;5029998;28;20461;-36
2022/10/10 04:42:55;;;;;;;4.43;3.43;;;11.70;99.90;;;;;;5029259;28;20426;-36
2022/10/10 04:45:21;;;;;;;4.37;2.60;;;11.70;99.90;;;;;;5029942;28;20193;-36
2022/10/10 04:47:47;;;;;;;4.40;2.50;;;11.60;99.90;;;;;;5030027;28;20198;-37
2022/10/10 04:50:12;;;;;;;3.80;2.80;;;11.70;99.90;;;;;;5030016;28;20436;-36
2022/10/10 04:52:38;;;;;;;3.13;2.83;;;11.70;99.90;;;;;;5016863;28;20585;-36
2022/10/10 04:55:04;;;;;;;3.10;2.87;;;11.70;99.90;;;;;;5026727;28;20662;-36
2022/10/10 04:57:30;;;;;;;5.00;2.77;;;11.70;99.90;;;;;;5029761;28;20617;-36
2022/10/10 04:59:55;;;;;;;8.30;3.47;;;11.70;99.90;;;;;;5029589;28;20515;-36
2022/10/10 05:02:21;;;;;;;3.60;2.53;;;11.70;99.90;;;;;;5029338;28;20301;-36
2022/10/10 05:04:47;;;;;;;5.17;2.97;;;11.70;99.90;;;;;;5033542;28;20198;-37
2022/10/10 05:07:13;;;;;;;3.53;2.70;;;11.70;99.90;;;;;;5028440;28;20669;-36
2022/10/10 05:09:39;;;;;;;5.00;2.97;;;11.70;99.90;;;;;;5029849;28;20428;-36
2022/10/10 05:12:04;;;;;;;5.20;2.90;;;11.70;99.90;;;;;;5029871;28;20201;-36
2022/10/10 05:14:30;;;;;;;4.37;2.80;;;11.60;99.90;;;;;;5028908;28;20602;-36
2022/10/10 05:16:56;;;;;;;6.13;3.37;;;11.60;99.90;;;;;;5028586;28;20953;-36
2022/10/10 05:19:21;;;;;;;3.53;3.03;;;11.60;99.90;;;;;;5029594;28;20186;-36
2022/10/10 05:21:47;;;;;;;4.40;2.77;;;11.60;99.90;;;;;;5034846;28;20305;-36
2022/10/10 05:24:13;;;;;;;3.23;2.93;;;11.60;99.90;;;;;;5048841;28;20198;-36
2022/10/10 05:26:38;;;;;;;4.70;3.20;;;11.70;99.90;;;;;;5049534;28;20665;-36
2022/10/10 05:29:05;;;;;;;4.20;2.67;;;11.70;99.90;;;;;;5051495;28;20244;-36
2022/10/10 05:31:30;;;;;;;4.03;3.07;;;11.70;99.90;;;;;;5053345;28;20683;-36
2022/10/10 05:33:56;;;;;;;3.90;3.40;;;11.70;99.90;;;;;;5052757;28;20428;-36
2022/10/10 05:36:22;;;;;;;4.70;3.13;;;11.80;99.90;;;;;;5053342;28;20209;-36
2022/10/10 05:38:47;;;;;;;3.87;3.30;;;11.70;99.90;;;;;;5053135;28;20197;-36
2022/10/10 05:41:13;;;;;;;3.37;3.07;;;11.80;99.90;;;;;;5053154;28;20248;-36
2022/10/10 05:43:39;;;;;;;3.80;3.00;;;11.80;99.90;;;;;;5052337;28;20189;-36
2022/10/10 05:46:05;;;;;;;4.67;2.90;;;11.80;99.90;;;;;;5053022;28;20236;-36
2022/10/10 05:48:30;;;;;;;4.00;3.23;;;11.80;99.90;;;;;;5053108;28;20178;-36
2022/10/10 05:50:58;;;;;;;4.03;2.90;;;11.90;99.90;;;;;;5036161;28;21277;-36
2022/10/10 05:53:26;;;;;;;3.63;2.97;;;11.80;99.90;;;;;;5032279;28;20185;-37
2022/10/10 05:55:51;;;;;;;3.80;3.23;;;11.90;99.90;;;;;;5028303;28;20431;-36
2022/10/10 05:58:17;;;;;;;4.70;2.87;;;11.80;99.90;;;;;;5027994;28;20437;-36
2022/10/10 06:00:44;;;;;;;4.07;3.67;;;11.90;99.90;;;;;;5032606;28;20210;-36
2022/10/10 06:03:13;;;;;;;6.50;3.33;;;11.90;99.90;;;;;;5032212;28;20621;-36
2022/10/10 06:05:43;;;;;;;5.87;3.40;;;11.90;99.90;;;;;;5032447;28;20495;-36
2022/10/10 06:08:09;;;;;;;3.20;2.90;;;11.90;99.90;;;;;;5032316;28;20429;-36
2022/10/10 06:10:36;;;;;;;6.10;3.00;;;11.90;99.90;;;;;;5033803;28;20437;-36
2022/10/10 06:13:02;;;;;;;3.50;3.20;;;11.90;99.90;;;;;;5028531;28;20441;-36
2022/10/10 06:15:28;;;;;;;6.70;3.30;;;12.00;99.90;;;;;;5033227;28;20448;-36
2022/10/10 06:17:53;;;;;;;5.80;3.17;;;12.00;99.90;;;;;;5031740;28;20428;-36
2022/10/10 06:20:19;;;;;;;6.90;3.10;;;12.00;99.90;;;;;;5032549;28;20214;-37
2022/10/10 06:22:45;;;;;;;7.07;3.20;;;11.90;99.90;;;;;;5030791;28;20190;-36
2022/10/10 06:25:11;;;;;;;4.20;3.40;;;11.90;99.90;;;;;;5031993;28;20214;-36
2022/10/10 06:27:36;;;;;;;4.43;3.10;;;11.90;99.90;;;;;;5030962;28;20210;-36
2022/10/10 06:30:03;;;;;;;6.87;3.30;;;12.00;99.90;;;;;;5033844;28;20827;-36
2022/10/10 06:32:28;;;;;;;5.20;3.73;;;12.00;99.90;;;;;;5030390;28;20190;-36
2022/10/10 06:34:54;;;;;;;3.30;3.00;;;12.00;99.90;;;;;;5033090;28;20425;-37
2022/10/10 06:37:19;;;;;;;6.30;3.83;;;12.10;99.90;;;;;;5031795;28;20202;-36
2022/10/10 06:39:45;;;;;;;5.03;3.40;;;12.10;99.90;;;;;;5034276;28;20218;-36
2022/10/10 06:42:11;;;;;;;3.47;3.20;;;12.10;99.90;;;;;;5031354;28;20190;-37
2022/10/10 06:44:36;;;;;;;5.43;3.43;;;12.10;99.90;;;;;;5031605;28;20196;-37
2022/10/10 06:47:02;;;;;;;4.27;2.63;;;12.10;99.90;;;;;;5032794;28;20456;-36
2022/10/10 06:49:28;;;;;;;3.50;3.03;;;12.10;99.90;;;;;;5032480;28;20178;-36
2022/10/10 06:51:54;;;;;;;4.27;3.37;;;12.10;99.90;;;;;;5031193;28;20190;-36
2022/10/10 06:54:19;;;;;;;4.97;3.17;;;12.20;99.90;;;;;;5029499;28;20433;-36
2022/10/10 06:56:45;;;;;;;4.90;3.10;;;12.20;99.90;;;;;;5031562;28;20248;-37
2022/10/10 06:59:11;;;;;;;3.47;2.87;;;12.30;99.90;;;;;;5031922;28;20197;-37
2022/10/10 07:01:37;;;;;;;3.43;3.13;;;12.30;99.90;;;;;;5031191;28;20214;-36
2022/10/10 07:04:04;;;;;;;8.47;4.17;;;12.30;99.90;;;;;;5030586;28;20183;-36
2022/10/10 07:06:30;;;;;;;5.00;3.50;;;12.40;99.90;;;;;;5032201;28;20265;-36
2022/10/10 07:08:57;;;;;;;7.13;3.70;;;12.50;99.90;;;;;;5032534;28;20421;-36
2022/10/10 07:11:24;;;;;;;6.10;3.30;;;12.50;99.90;;;;;;5029343;28;21132;-36
2022/10/10 07:13:51;;;;;;;3.57;3.27;;;12.60;99.90;;;;;;5032554;28;20976;-36
2022/10/10 07:16:17;;;;;;;6.53;3.90;;;12.70;99.90;;;;;;5031274;28;20558;-36
2022/10/10 07:18:43;;;;;;;3.77;2.50;;;12.80;99.90;;;;;;5031511;28;20872;-36
2022/10/10 07:21:09;;;;;;;5.30;3.70;;;12.90;99.90;;;;;;5031533;28;21023;-36
2022/10/10 07:23:35;;;;;;;3.30;3.00;;;13.10;99.90;;;;;;5032559;28;20565;-36
2022/10/10 07:26:04;;;;;;;3.90;3.57;;;13.30;99.90;;;;;;5030509;28;20437;-36
2022/10/10 07:28:30;;;;;;;3.63;3.27;;;13.40;99.90;;;;;;5031129;28;20413;-37
2022/10/10 07:31:03;;;;;;;5.80;3.67;;;13.70;99.90;;;;;;5030974;28;20878;-36
2022/10/10 07:33:33;;;;;;;6.50;3.80;;;13.80;99.90;;;;;;5030318;28;20438;-36
2022/10/10 07:35:59;;;;;;;3.90;3.10;;;14.00;99.90;;;;;;5031188;28;20425;-36
2022/10/10 07:38:25;;;;;;;6.27;4.20;;;14.20;99.90;;;;;;5030742;28;20467;-36
2022/10/10 07:40:51;;;;;;;7.00;3.43;;;14.30;99.90;;;;;;5031005;28;20221;-36
2022/10/10 07:43:16;;;;;;;5.37;3.27;;;14.50;99.90;;;;;;5030425;28;20701;-36
2022/10/10 07:45:42;;;;;;;3.77;3.13;;;14.70;99.90;;;;;;5029691;28;20179;-36
2022/10/10 07:48:08;;;;;;;6.30;3.50;;;14.80;99.90;;;;;;5030797;28;20198;-36
2022/10/10 07:50:33;;;;;;;5.57;3.50;;;14.90;99.90;;;;;;5045291;28;20189;-36
2022/10/10 07:52:59;;;;;;;5.43;3.30;;;15.00;99.90;;;;;;5048426;28;20189;-36
2022/10/10 07:55:25;;;;;;;3.57;3.27;;;15.30;99.90;;;;;;5020962;28;20237;-37
2022/10/10 07:57:50;;;;;;;6.20;3.20;;;15.40;99.90;;;;;;5029751;28;20687;-36
2022/10/10 08:00:16;;;;;;;4.40;3.60;;;15.50;99.90;;;;;;5029584;28;20217;-36
2022/10/10 08:02:42;;;;;;;4.13;3.27;;;15.70;99.90;;;;;;5029611;28;20233;-37
2022/10/10 08:05:08;;;;;;;5.33;3.80;;;15.80;99.90;;;;;;5031195;28;20206;-36
2022/10/10 08:07:33;;;;;;;5.17;3.47;;;15.80;99.90;;;;;;5031637;28;20195;-37
2022/10/10 08:10:01;;;;;;;4.60;3.57;;;15.90;99.90;;;;;;5032538;28;20448;-36
2022/10/10 08:12:27;;;;;;;4.83;3.70;;;16.10;99.90;;;;;;5050145;28;20193;-37
2022/10/10 08:14:53;;;;;;;4.47;3.63;;;16.20;99.90;;;;;;5049807;28;20951;-37
2022/10/10 08:17:18;;;;;;;8.10;3.50;;;16.30;99.90;;;;;;5037418;28;20436;-37
2022/10/10 08:19:44;;;;;;;4.30;3.17;;;16.40;99.90;;;;;;5029581;28;20305;-38
2022/10/10 08:22:09;;;;;;;4.67;3.10;;;16.50;99.90;;;;;;5030113;28;20214;-37
2022/10/10 08:24:35;;;;;;;4.47;3.20;;;16.50;99.90;;;;;;5029578;28;20201;-37
2022/10/10 08:27:01;;;;;;;5.13;3.17;;;16.60;99.90;;;;;;5029112;28;20190;-37
2022/10/10 08:29:26;;;;;;;4.00;3.00;;;16.60;99.90;;;;;;5030074;28;20236;-37
2022/10/10 08:31:52;;;;;;;4.20;2.90;;;16.70;99.90;;;;;;5030152;28;20197;-37
2022/10/10 08:34:18;;;;;;;3.63;3.33;;;16.80;99.90;;;;;;5029445;28;20213;-37
2022/10/10 08:36:43;;;;;;;4.10;3.03;;;16.90;99.90;;;;;;5028573;28;20187;-37
2022/10/10 08:39:09;;;;;;;5.00;3.23;;;17.00;99.90;;;;;;5030023;28;20199;-37
2022/10/10 08:41:47;;;;;;;6.30;3.23;;;17.20;99.90;;;;;;5030208;28;20237;-37
2022/10/10 08:44:19;;;;;;;7.97;4.17;;;17.20;99.90;;;;;;5029301;28;20798;-37
2022/10/10 08:46:47;;;;;;;5.57;3.30;;;17.20;99.90;;;;;;5030109;28;20421;-37
2022/10/10 08:49:37;;;;;;;5.00;3.70;;;17.20;99.90;;;;;;5029751;28;20417;-38
2022/10/10 08:52:32;;;;;;;5.37;3.40;;;17.30;99.90;;;;;;5029958;28;20432;-37
2022/10/10 08:55:01;;;;;;;6.23;3.40;;;17.50;99.90;;;;;;5027982;28;20516;-37
2022/10/10 08:57:46;;;;;;;3.30;3.00;;;17.60;99.90;;;;;;5029781;28;20413;-37
2022/10/10 09:00:17;;;;;;;4.07;3.53;;;17.70;99.90;;;;;;5029620;28;20475;-37
2022/10/10 09:02:51;;;;;;;4.93;3.80;;;17.80;99.90;;;;;;5029265;28;20433;-37
2022/10/10 09:05:21;;;;;;;4.73;3.27;;;17.80;99.90;;;;;;5033731;28;20447;-37
2022/10/10 09:08:01;;;;;;;5.50;3.30;;;17.90;99.90;;;;;;5033903;28;20475;-37
2022/10/10 09:10:35;;;;;;;4.73;2.73;;;18.10;99.90;;;;;;5033978;28;20792;-37
2022/10/10 09:13:38;;;;;;;4.70;3.07;;;18.30;99.90;;;;;;5033215;28;20432;-37
2022/10/10 09:16:21;;;;;;;3.73;2.97;;;18.30;99.90;;;;;;5024272;28;20463;-37
2022/10/10 09:19:03;;;;;;;4.90;2.60;;;18.50;99.90;;;;;;5021399;28;21219;-37
2022/10/10 09:21:33;;;;;;;6.40;2.70;;;18.70;99.90;;;;;;5034055;28;20471;-37
2022/10/10 09:24:27;;;;;;;3.60;3.00;;;18.70;99.90;;;;;;5033146;28;20939;-37
2022/10/10 09:27:03;;;;;;;5.40;3.07;;;18.80;99.90;;;;;;5033084;28;20428;-37
2022/10/10 09:29:57;;;;;;;7.20;2.70;;;18.90;99.90;;;;;;5033647;28;20435;-37
2022/10/10 09:32:32;;;;;;;5.97;3.47;;;19.00;99.90;;;;;;5033462;28;20429;-38
2022/10/10 09:35:25;;;;;;;5.30;2.73;;;19.10;99.90;;;;;;5032826;28;20897;-37
2022/10/10 09:38:33;;;;;;;4.03;2.80;;;19.30;99.90;;;;;;5032765;28;20498;-37
2022/10/10 09:41:34;;;;;;;6.40;3.50;;;19.30;99.90;;;;;;5032862;28;20815;-37
2022/10/10 09:44:04;;;;;;;5.50;3.47;;;19.40;99.90;;;;;;5032583;28;20421;-37
2022/10/10 09:46:30;;;;;;;6.70;2.97;;;19.60;99.90;;;;;;5033263;28;20429;-37
2022/10/10 09:48:56;;;;;;;4.70;3.40;;;19.70;99.90;;;;;;5033030;28;20417;-38
2022/10/10 09:51:22;;;;;;;5.33;2.80;;;19.80;99.90;;;;;;5032911;28;20190;-37
2022/10/10 09:53:48;;;;;;;7.13;2.90;;;19.70;99.90;;;;;;5032241;28;20447;-37
2022/10/10 09:56:20;;;;;;;8.40;2.60;;;19.80;99.90;;;;;;5031803;28;20255;-37
2022/10/10 09:58:51;;;;;;;4.47;2.60;;;19.80;99.90;;;;;;5032915;28;20436;-37
2022/10/10 10:01:22;;;;;;;4.93;3.10;;;19.80;99.90;;;;;;5033056;28;20511;-36
2022/10/10 10:04:12;;;;;;;4.53;3.00;;;19.60;99.90;;;;;;5032213;28;20425;-37
2022/10/10 10:06:42;;;;;;;3.63;2.37;;;19.70;99.90;;;;;;5033059;28;20437;-36
2022/10/10 10:09:14;;;;;;;5.50;3.33;;;19.60;99.90;;;;;;5032746;28;20436;-37
2022/10/10 10:11:40;;;;;;;4.40;2.73;;;19.50;99.90;;;;;;5032838;28;20419;-37
2022/10/10 10:14:15;;;;;;;5.47;2.63;;;19.50;99.90;;;;;;5031575;28;20417;-37
2022/10/10 10:16:41;;;;;;;7.90;3.60;;;19.50;99.90;;;;;;5032361;28;20428;-37
2022/10/10 10:19:31;;;;;;;5.50;2.87;;;19.50;99.90;;;;;;5032544;28;20425;-37
2022/10/10 10:21:56;;;;;;;8.20;3.10;;;19.70;99.90;;;;;;5032402;28;20193;-37
2022/10/10 10:24:31;;;;;;;4.77;2.80;;;19.50;99.90;;;;;;5031930;28;20417;-37
2022/10/10 10:27:08;;;;;;;4.07;2.83;;;19.20;99.90;;;;;;5032583;28;20174;-37
2022/10/10 10:29:34;;;;;;;4.77;3.10;;;19.10;99.90;;;;;;5030965;28;20425;-37
2022/10/10 10:32:04;;;;;;;4.67;2.80;;;19.10;99.90;;;;;;5032481;28;20461;-37
2022/10/10 10:34:44;;;;;;;7.77;2.97;;;19.10;99.90;;;;;;5031664;28;20273;-37
2022/10/10 10:37:24;;;;;;;4.90;2.40;;;19.20;99.90;;;;;;5032246;28;20412;-37
2022/10/10 10:40:13;;;;;;;5.70;2.50;;;19.20;99.90;;;;;;5032085;28;20480;-38
2022/10/10 10:43:00;;;;;;;4.80;2.90;;;19.20;99.90;;;;;;5031898;28;20421;-37
2022/10/10 10:45:52;;;;;;;6.80;3.23;;;19.10;99.90;;;;;;5032259;28;20440;-37
2022/10/10 10:48:24;;;;;;;7.40;2.97;;;18.90;99.90;;;;;;5032181;28;20405;-37
2022/10/10 10:50:55;;;;;;;4.50;2.33;;;19.00;99.90;;;;;;5032221;28;20778;-37
2022/10/10 10:53:30;;;;;;;4.90;2.67;;;19.00;99.90;;;;;;5031568;28;20424;-37
2022/10/10 10:56:05;;;;;;;7.80;3.60;;;19.10;99.90;;;;;;5031011;28;20424;-37
2022/10/10 10:58:38;;;;;;;4.73;2.70;;;19.10;99.90;;;;;;5031699;28;20408;-37
2022/10/10 11:01:09;;;;;;;4.37;2.40;;;19.10;99.90;;;;;;5031760;28;20472;-37
2022/10/10 11:03:34;;;;;;;5.00;2.87;;;19.10;99.90;;;;;;5031201;28;20432;-37
2022/10/10 11:06:09;;;;;;;6.20;2.93;;;19.10;99.90;;;;;;5031758;28;20437;-37
2022/10/10 11:08:39;;;;;;;11.43;2.90;;;19.20;99.90;;;;;;5031637;28;20232;-37
2022/10/10 11:11:36;;;;;;;5.50;2.33;;;19.00;99.90;;;;;;5031676;28;20444;-38
2022/10/10 11:14:20;;;;;;;4.83;3.00;;;19.10;99.90;;;;;;5031046;28;20414;-37
2022/10/10 11:16:51;;;;;;;5.03;2.90;;;19.10;99.90;;;;;;5031457;28;20416;-37
2022/10/10 11:19:36;;;;;;;5.17;2.70;;;19.00;99.90;;;;;;5031254;28;20417;-38
2022/10/10 11:22:10;;;;;;;5.67;2.60;;;19.00;99.90;;;;;;5018468;28;20432;-36
2022/10/10 11:24:52;;;;;;;5.13;2.50;;;19.00;99.90;;;;;;5030742;28;20495;-36
2022/10/10 11:27:31;;;;;;;7.30;2.90;;;19.10;99.90;;;;;;5029203;28;20405;-37
2022/10/10 11:30:05;;;;;;;5.23;3.13;;;19.20;99.90;;;;;;5031307;28;20471;-37
2022/10/10 11:33:19;;;;;;;6.13;2.50;;;19.20;99.90;;;;;;5031038;28;20419;-37
2022/10/10 11:35:57;;;;;;;4.93;2.60;;;19.10;99.90;;;;;;5030404;28;20429;-38
2022/10/10 11:38:32;;;;;;;5.37;2.53;;;19.10;99.90;;;;;;5031364;28;20449;-37
2022/10/10 11:41:22;;;;;;;4.93;2.47;;;19.00;99.90;;;;;;5030740;28;20459;-37
2022/10/10 11:43:49;;;;;;;6.47;3.10;;;19.00;99.90;;;;;;5027888;28;20421;-36
2022/10/10 11:46:38;;;;;;;5.33;2.97;;;19.00;99.90;;;;;;5030903;28;20972;-37
2022/10/10 11:49:32;;;;;;;4.03;2.67;;;19.00;99.90;;;;;;5031897;28;20908;-36
2022/10/10 11:52:36;;;;;;;7.90;2.83;;;18.90;99.90;;;;;;5030785;28;20421;-37
2022/10/10 11:55:14;;;;;;;6.77;3.40;;;18.90;99.90;;;;;;5029152;28;20745;-37
2022/10/10 11:58:03;;;;;;;5.40;2.50;;;18.80;99.90;;;;;;5030107;28;20417;-36
2022/10/10 12:00:32;;;;;;;5.33;2.77;;;18.90;99.90;;;;;;5028175;28;20445;-37
2022/10/10 12:02:58;;;;;;;6.77;3.20;;;18.80;99.90;;;;;;5031366;28;20460;-37
2022/10/10 12:05:36;;;;;;;6.03;2.97;;;18.80;99.90;;;;;;5033738;28;20431;-37
2022/10/10 12:08:12;;;;;;;5.30;2.60;;;18.80;99.90;;;;;;5050673;28;20276;-37
2022/10/10 12:10:46;;;;;;;5.70;2.83;;;18.60;99.90;;;;;;5050347;28;20419;-37
2022/10/10 12:13:33;;;;;;;6.17;3.17;;;18.70;99.90;;;;;;5049787;28;20430;-36
2022/10/10 12:16:08;;;;;;;6.00;2.77;;;18.80;99.90;;;;;;5048995;28;20459;-37
2022/10/10 12:18:38;;;;;;;11.83;3.33;;;18.90;99.90;;;;;;5015945;28;20424;-37
2022/10/10 12:21:19;;;;;;;7.00;3.10;;;19.00;99.90;;;;;;5031097;28;20461;-37
2022/10/10 12:24:03;;;;;;;8.50;3.10;;;18.90;99.90;;;;;;5029148;28;20425;-37
2022/10/10 12:26:55;;;;;;;7.27;3.23;;;18.90;99.90;;;;;;5028608;28;20429;-38
2022/10/10 12:29:41;;;;;;;6.00;3.33;;;18.80;99.90;;;;;;5013550;28;20608;-37
2022/10/10 12:32:13;;;;;;;8.67;3.07;;;18.80;99.90;;;;;;5029860;28;20416;-37
2022/10/10 12:34:40;;;;;;;7.00;2.80;;;18.70;99.90;;;;;;5029599;28;20409;-37
2022/10/10 12:37:19;;;;;;;5.53;2.93;;;18.70;99.90;;;;;;5029864;28;20470;-37
2022/10/10 12:40:17;;;;;;;8.53;3.70;;;18.70;99.90;;;;;;5030095;28;20428;-37
2022/10/10 12:42:46;;;;;;;7.50;3.70;;;18.60;99.90;;;;;;5028994;28;20433;-37
2022/10/10 12:45:30;;;;;;;8.70;3.10;;;18.70;99.90;;;;;;5032180;28;20504;-37
2022/10/10 12:48:17;;;;;;;6.07;3.00;;;18.60;99.90;;;;;;5030026;28;20961;-37
2022/10/10 12:50:52;;;;;;;4.73;3.17;;;18.70;99.90;;;;;;5029475;28;20516;-37
2022/10/10 12:53:20;;;;;;;6.07;2.97;;;18.70;99.90;;;;;;5027850;28;20570;-39
2022/10/10 12:56:00;;;;;;;7.27;3.53;;;18.70;99.90;;;;;;5027903;28;20476;-38
2022/10/10 12:58:33;;;;;;;8.03;3.87;;;18.70;99.90;;;;;;5027703;28;20440;-37
2022/10/10 13:01:02;;;;;;;9.37;3.63;;;18.60;99.90;;;;;;5026977;28;20459;-37
2022/10/10 13:03:28;;;;;;;7.13;3.63;;;18.60;99.90;;;;;;5028696;28;20459;-37
2022/10/10 13:05:57;;;;;;;5.53;4.00;;;18.60;99.90;;;;;;5029478;28;20432;-37
2022/10/10 13:08:25;;;;;;;6.00;3.40;;;18.60;99.90;;;;;;5029792;28;20273;-37
2022/10/10 13:11:00;;;;;;;5.57;3.40;;;18.60;99.90;;;;;;5029119;28;20758;-39